Time;durP1;ratioP1;P1;durP2;ratioP2;P2;SDS_P1;SDS_P2;PMS_P1;PMS_P2;Temp;Humidity;BMP_temperature;BMP_pressure;BME280_temperature;BME280_humidity;BME280_pressure;Samples;Min_cycle;Max_cycle;Signal;HPM_P1;HPM_P2
2023/10/08 00:00:39;;;;;;;;;;;;;;;11.31;100.00;99930.00;4995255;28;1111;-61
2023/10/08 00:02:45;;;;;;;;;;;;;;;11.15;100.00;99929.69;4995059;28;1222;-61
2023/10/08 00:05:16;;;;;;;;;;;;;;;11.10;100.00;99930.91;4995203;28;820;-61
2023/10/08 00:07:43;;;;;;;;;;;;;;;11.05;100.00;99925.78;4995102;28;1949;-61
2023/10/08 00:10:09;;;;;;;;;;;;;;;11.03;100.00;99923.44;4995174;28;899;-61
2023/10/08 00:12:36;;;;;;;;;;;;;;;11.07;100.00;99909.56;4995219;28;909;-61
2023/10/08 00:15:07;;;;;;;;;;;;;;;10.98;100.00;99910.00;4995069;28;1330;-61
2023/10/08 00:17:34;;;;;;;;;;;;;;;10.77;100.00;99902.59;4994984;28;817;-61
2023/10/08 00:20:01;;;;;;;;;;;;;;;10.64;100.00;99909.75;4994902;28;923;-61
2023/10/08 00:22:29;;;;;;;;;;;;;;;10.54;100.00;99897.56;4995070;28;816;-61
2023/10/08 00:24:58;;;;;;;;;;;;;;;10.48;100.00;99901.13;4994809;28;865;-61
2023/10/08 00:27:25;;;;;;;;;;;;;;;10.44;100.00;99906.66;4994676;28;1910;-61
2023/10/08 00:29:52;;;;;;;;;;;;;;;10.37;100.00;99903.91;4994805;28;817;-61
2023/10/08 00:32:21;;;;;;;;;;;;;;;10.33;100.00;99906.69;4994648;28;851;-61
2023/10/08 00:34:48;;;;;;;;;;;;;;;10.32;100.00;99893.28;4994700;28;848;-61
2023/10/08 00:37:14;;;;;;;;;;;;;;;10.29;100.00;99896.81;4994482;28;864;-61
2023/10/08 00:39:41;;;;;;;;;;;;;;;10.31;100.00;99898.00;4994639;28;820;-61
2023/10/08 00:42:08;;;;;;;;;;;;;;;10.48;100.00;99896.38;4994374;28;872;-61
2023/10/08 00:45:00;;;;;;;;;;;;;;;10.58;100.00;99894.75;4993120;28;836;-61
2023/10/08 00:47:26;;;;;;;;;;;;;;;10.62;100.00;99885.28;4993286;28;1886;-61
2023/10/08 00:50:08;;;;;;;;;;;;;;;10.91;100.00;99881.63;4993992;28;817;-61
2023/10/08 00:52:53;;;;;;;;;;;;;;;11.15;100.00;99885.44;4993847;28;840;-61
2023/10/08 00:55:21;;;;;;;;;;;;;;;11.23;100.00;99876.69;4993925;28;852;-62
2023/10/08 00:57:53;;;;;;;;;;;;;;;11.27;100.00;99868.34;4994121;28;832;-62
2023/10/08 01:00:21;;;;;;;;;;;;;;;11.26;100.00;99875.06;4994006;28;935;-61
2023/10/08 01:03:00;;;;;;;;;;;;;;;11.24;100.00;99869.16;4993881;28;820;-61
2023/10/08 01:05:42;;;;;;;;;;;;;;;11.20;100.00;99860.09;4994228;28;892;-61
2023/10/08 01:08:12;;;;;;;;;;;;;;;11.18;100.00;99871.59;4976321;28;1971;-61
2023/10/08 01:10:43;;;;;;;;;;;;;;;11.03;100.00;99867.31;4994188;28;949;-61
2023/10/08 01:13:36;;;;;;;;;;;;;;;10.74;100.00;99864.69;4994095;28;1035;-61
2023/10/08 01:15:57;;;;;;;;;;;;;;;10.53;100.00;99867.56;4973747;28;1162;-62
2023/10/08 01:18:32;;;;;;;;;;;;;;;10.43;100.00;99869.16;4974850;28;829;-61
2023/10/08 01:21:07;;;;;;;;;;;;;;;10.51;100.00;99864.41;4974266;28;860;-62
2023/10/08 01:23:34;;;;;;;;;;;;;;;10.54;100.00;99855.28;4974321;28;932;-61
2023/10/08 01:26:11;;;;;;;;;;;;;;;10.53;100.00;99853.72;4974336;28;837;-61
2023/10/08 01:28:38;;;;;;;;;;;;;;;10.46;100.00;99862.06;4974294;28;844;-62
2023/10/08 01:31:06;;;;;;;;;;;;;;;10.34;100.00;99855.75;4974282;28;945;-61
2023/10/08 01:33:46;;;;;;;;;;;;;;;10.26;100.00;99856.94;4974010;28;923;-61
2023/10/08 01:36:13;;;;;;;;;;;;;;;10.09;100.00;99858.59;4974209;28;1164;-62
2023/10/08 01:38:41;;;;;;;;;;;;;;;10.06;100.00;99858.59;4974036;28;1287;-61
2023/10/08 01:41:26;;;;;;;;;;;;;;;10.07;100.00;99854.63;4974185;28;965;-62
2023/10/08 01:43:53;;;;;;;;;;;;;;;10.04;100.00;99850.69;4974064;28;857;-61
2023/10/08 01:46:21;;;;;;;;;;;;;;;10.04;100.00;99844.38;4974056;28;1952;-61
2023/10/08 01:48:53;;;;;;;;;;;;;;;9.98;100.00;99842.00;4973823;28;905;-61
2023/10/08 01:51:24;;;;;;;;;;;;;;;9.91;100.00;99833.75;4973841;28;901;-61
2023/10/08 01:53:58;;;;;;;;;;;;;;;9.84;100.00;99841.28;4973748;28;879;-61
2023/10/08 01:56:24;;;;;;;;;;;;;;;9.96;100.00;99833.38;4973419;28;844;-61
2023/10/08 01:58:51;;;;;;;;;;;;;;;9.95;100.00;99842.03;4973990;28;843;-61
2023/10/08 02:01:20;;;;;;;;;;;;;;;10.11;100.00;99841.59;4973621;28;843;-61
2023/10/08 02:03:48;;;;;;;;;;;;;;;10.37;100.00;99843.13;4973666;28;887;-61
2023/10/08 02:06:14;;;;;;;;;;;;;;;10.65;100.00;99836.72;4973420;28;1953;-61
2023/10/08 02:08:41;;;;;;;;;;;;;;;10.79;100.00;99831.09;4973582;28;871;-61
2023/10/08 02:11:08;;;;;;;;;;;;;;;10.89;100.00;99836.97;4973496;28;820;-62
2023/10/08 02:13:36;;;;;;;;;;;;;;;10.94;100.00;99836.53;4976123;28;1354;-61
2023/10/08 02:16:03;;;;;;;;;;;;;;;10.91;100.00;99835.38;4992835;28;875;-62
2023/10/08 02:18:30;;;;;;;;;;;;;;;10.80;100.00;99831.91;4992717;28;883;-62
2023/10/08 02:20:58;;;;;;;;;;;;;;;10.61;100.00;99827.66;4992797;28;872;-61
2023/10/08 02:23:24;;;;;;;;;;;;;;;10.40;100.00;99817.47;4992561;28;845;-61
2023/10/08 02:25:51;;;;;;;;;;;;;;;10.25;100.00;99824.22;4992683;28;903;-61
2023/10/08 02:28:20;;;;;;;;;;;;;;;10.04;100.00;99825.06;4992576;28;1910;-61
2023/10/08 02:30:46;;;;;;;;;;;;;;;9.87;100.00;99821.91;4992672;28;900;-61
2023/10/08 02:33:15;;;;;;;;;;;;;;;9.79;100.00;99812.06;4992480;28;884;-61
2023/10/08 02:35:42;;;;;;;;;;;;;;;9.71;100.00;99813.28;4992540;28;828;-62
2023/10/08 02:38:13;;;;;;;;;;;;;;;9.61;100.00;99809.34;4992485;28;860;-61
2023/10/08 02:40:46;;;;;;;;;;;;;;;9.46;100.00;99807.78;4974955;28;1686;-61
2023/10/08 02:43:15;;;;;;;;;;;;;;;9.35;100.00;99805.81;4992608;28;837;-61
2023/10/08 02:45:47;;;;;;;;;;;;;;;9.35;100.00;99805.03;4992638;28;828;-61
2023/10/08 02:48:13;;;;;;;;;;;;;;;9.40;100.00;99804.63;4992410;28;1948;-61
2023/10/08 02:50:40;;;;;;;;;;;;;;;9.29;100.00;99812.13;4992474;28;836;-61
2023/10/08 02:53:10;;;;;;;;;;;;;;;9.25;100.00;99808.56;4992554;28;908;-62
2023/10/08 02:55:42;;;;;;;;;;;;;;;9.57;100.00;99806.59;4992801;28;884;-62
2023/10/08 02:58:19;;;;;;;;;;;;;;;10.19;100.00;99799.75;4992351;28;856;-62
2023/10/08 03:00:49;;;;;;;;;;;;;;;10.68;100.00;99807.47;4992313;28;852;-61
2023/10/08 03:03:16;;;;;;;;;;;;;;;10.90;100.00;99802.59;4992191;28;888;-61
2023/10/08 03:05:51;;;;;;;;;;;;;;;11.00;100.00;99794.22;4992329;28;814;-61
2023/10/08 03:08:23;;;;;;;;;;;;;;;11.09;100.00;99798.53;4994238;28;1941;-61
2023/10/08 03:11:03;;;;;;;;;;;;;;;11.15;100.00;99799.66;4996264;28;852;-62
2023/10/08 03:13:30;;;;;;;;;;;;;;;11.19;100.00;99803.19;4996175;28;1226;-61
2023/10/08 03:16:07;;;;;;;;;;;;;;;11.12;100.00;99801.28;4996123;28;880;-62
2023/10/08 03:18:37;;;;;;;;;;;;;;;10.98;100.00;99801.38;4996034;28;932;-61
2023/10/08 03:21:05;;;;;;;;;;;;;;;10.73;100.00;99796.78;4995928;28;927;-61
2023/10/08 03:23:35;;;;;;;;;;;;;;;10.50;100.00;99799.28;4995808;28;828;-62
2023/10/08 03:26:10;;;;;;;;;;;;;;;10.20;100.00;99795.03;4996005;28;824;-61
2023/10/08 03:28:37;;;;;;;;;;;;;;;10.02;100.00;99795.84;4995882;28;833;-61
2023/10/08 03:31:15;;;;;;;;;;;;;;;9.97;100.00;99787.22;4978358;28;846;-62
2023/10/08 03:33:43;;;;;;;;;;;;;;;9.94;100.00;99791.56;4995843;28;840;-61
2023/10/08 03:36:21;;;;;;;;;;;;;;;9.82;100.00;99790.00;4995660;28;900;-61
2023/10/08 03:38:51;;;;;;;;;;;;;;;9.58;100.00;99790.81;4995708;28;837;-62
2023/10/08 03:41:18;;;;;;;;;;;;;;;9.34;100.00;99790.44;4995484;28;913;-61
2023/10/08 03:46:30;;;;;;;;;;;;;;;8.92;100.00;99799.47;4995549;28;1947;-61
2023/10/08 03:48:57;;;;;;;;;;;;;;;8.77;100.00;99784.88;4995515;28;860;-61
2023/10/08 03:51:27;;;;;;;;;;;;;;;8.69;100.00;99788.78;4995431;28;978;-61
2023/10/08 03:54:29;;;;;;;;;;;;;;;8.63;100.00;99793.88;4994029;28;870;-61
2023/10/08 03:56:48;;;;;;;;;;;;;;;8.47;100.00;99776.91;4991815;28;1001;-61
2023/10/08 04:02:24;;;;;;;;;;;;;;;8.41;100.00;99779.28;4995048;28;1239;-63
2023/10/08 04:04:51;;;;;;;;;;;;;;;8.62;100.00;99775.78;4994874;28;868;-62
2023/10/08 04:10:20;;;;;;;;;;;;;;;8.85;100.00;99761.63;4995348;28;813;-63
2023/10/08 04:12:43;;;;;;;;;;;;;;;8.86;100.00;99762.44;4994885;28;1026;-62
2023/10/08 04:15:12;;;;;;;;;;;;;;;9.16;100.00;99756.56;4994937;28;1330;-63
2023/10/08 04:17:50;;;;;;;;;;;;;;;9.20;100.00;99752.63;4995132;28;904;-63
2023/10/08 04:20:38;;;;;;;;;;;;;;;9.22;100.00;99763.25;4994999;28;777;-63
2023/10/08 04:23:13;;;;;;;;;;;;;;;9.44;100.00;99754.97;4977229;28;1284;-63
2023/10/08 04:25:42;;;;;;;;;;;;;;;9.76;100.00;99758.47;4994987;28;879;-63
2023/10/08 04:28:14;;;;;;;;;;;;;;;10.10;100.00;99759.94;4977371;28;1922;-64
2023/10/08 04:30:41;;;;;;;;;;;;;;;11.05;100.00;99759.81;4994784;28;852;-64
2023/10/08 04:33:14;;;;;;;;;;;;;;;11.64;100.00;99748.63;4994576;28;994;-63
2023/10/08 04:36:01;;;;;;;;;;;;;;;11.91;100.00;99750.00;4994624;28;861;-64
2023/10/08 04:38:28;;;;;;;;;;;;;;;11.84;100.00;99750.78;4994698;28;841;-64
2023/10/08 04:40:55;;;;;;;;;;;;;;;11.97;100.00;99756.63;4994505;28;833;-64
2023/10/08 04:43:28;;;;;;;;;;;;;;;12.00;100.00;99753.03;4995293;28;884;-64
2023/10/08 04:46:05;;;;;;;;;;;;;;;12.00;100.00;99761.34;4994758;28;1188;-64
2023/10/08 04:48:32;;;;;;;;;;;;;;;12.08;100.00;99765.63;4994432;28;1956;-65
2023/10/08 04:51:00;;;;;;;;;;;;;;;12.15;100.00;99767.50;4994313;28;856;-64
2023/10/08 04:53:36;;;;;;;;;;;;;;;12.17;99.74;99773.41;4994342;28;844;-65
2023/10/08 04:56:13;;;;;;;;;;;;;;;12.21;98.50;99776.94;4994301;28;896;-64
2023/10/08 04:58:46;;;;;;;;;;;;;;;12.19;97.83;99776.56;4994212;28;872;-64
2023/10/08 05:11:56;;;;;;;;;;;;;;;12.92;92.86;99782.72;4993924;28;793;-65
2023/10/08 05:17:21;;;;;;;;;;;;;;;13.33;89.41;99776.94;4993833;28;838;-63
2023/10/08 05:20:19;;;;;;;;;;;;;;;13.34;89.37;99772.19;4976239;28;2481;-63
2023/10/08 05:22:55;;;;;;;;;;;;;;;13.25;89.26;99773.50;4993793;28;849;-63
2023/10/08 05:25:35;;;;;;;;;;;;;;;13.14;89.89;99772.84;4993746;28;927;-62
2023/10/08 05:28:09;;;;;;;;;;;;;;;13.05;91.17;99767.06;4993692;28;1907;-62
2023/10/08 05:30:41;;;;;;;;;;;;;;;12.96;91.99;99773.16;4992872;28;829;-62
2023/10/08 05:57:38;;;;;;;;;;;;;;;14.12;87.31;99752.50;4993146;28;722;-62
2023/10/08 06:05:20;;;;;;;;;;;;;;;14.51;88.57;99757.25;4993029;28;829;-62
2023/10/08 06:13:04;;;;;;;;;;;;;;;16.64;73.42;99740.22;4993046;28;983;-62
2023/10/08 06:18:28;;;;;;;;;;;;;;;17.26;66.17;99744.66;4992804;28;742;-63
2023/10/08 06:20:56;;;;;;;;;;;;;;;17.46;65.33;99736.78;4975305;28;1295;-62
2023/10/08 06:23:25;;;;;;;;;;;;;;;17.39;65.55;99744.63;4992723;28;872;-63
2023/10/08 06:26:13;;;;;;;;;;;;;;;17.22;65.05;99733.63;4992652;28;908;-63
2023/10/08 06:28:41;;;;;;;;;;;;;;;16.96;65.30;99741.22;4992641;28;1973;-64
2023/10/08 06:31:12;;;;;;;;;;;;;;;17.16;64.54;99729.81;4992655;28;964;-62
2023/10/08 06:33:38;;;;;;;;;;;;;;;17.48;61.10;99731.53;4992525;28;907;-63
2023/10/08 06:38:35;;;;;;;;;;;;;;;17.60;61.53;99724.31;4992438;28;812;-64
2023/10/08 06:41:14;;;;;;;;;;;;;;;17.78;60.08;99720.91;4992489;28;864;-63
2023/10/08 07:14:43;;;;;;;;;;;;;;;22.22;44.45;99703.16;5050216;23;1746;-58
2023/10/08 07:17:16;;;;;;;;;;;;;;;22.46;43.45;99702.25;4992184;28;1270;-58
2023/10/08 07:19:50;;;;;;;;;;;;;;;22.34;43.31;99700.50;4992205;28;847;-58
2023/10/08 07:22:22;;;;;;;;;;;;;;;22.32;42.87;99691.78;4992129;28;891;-59
2023/10/08 07:24:50;;;;;;;;;;;;;;;22.47;42.35;99695.38;4992137;28;883;-58
2023/10/08 07:27:21;;;;;;;;;;;;;;;22.44;42.52;99690.69;4991921;28;1914;-58
2023/10/08 07:29:48;;;;;;;;;;;;;;;22.64;41.78;99692.81;4992113;28;877;-59
2023/10/08 07:32:18;;;;;;;;;;;;;;;22.72;40.90;99685.50;4992420;28;903;-60
2023/10/08 07:34:45;;;;;;;;;;;;;;;22.76;40.96;99688.13;4991924;28;824;-59
2023/10/08 07:37:14;;;;;;;;;;;;;;;22.98;40.27;99682.81;4991934;28;875;-59
2023/10/08 07:39:46;;;;;;;;;;;;;;;23.04;39.89;99677.25;4991963;28;911;-59
2023/10/08 07:42:13;;;;;;;;;;;;;;;23.27;40.51;99671.91;4991977;28;896;-60
2023/10/08 07:44:40;;;;;;;;;;;;;;;23.52;40.04;99676.84;4991746;28;978;-59
2023/10/08 07:47:13;;;;;;;;;;;;;;;23.87;39.76;99670.31;4992067;28;1965;-58
2023/10/08 07:49:43;;;;;;;;;;;;;;;24.01;38.55;99674.31;4992031;28;876;-58
2023/10/08 07:52:09;;;;;;;;;;;;;;;24.02;38.44;99665.31;4992411;28;917;-58
2023/10/08 07:54:35;;;;;;;;;;;;;;;24.35;38.33;99668.94;4994098;28;859;-58
2023/10/08 07:57:12;;;;;;;;;;;;;;;24.35;37.83;99668.94;4995432;28;864;-59
2023/10/08 07:59:44;;;;;;;;;;;;;;;24.57;37.85;99676.84;4995499;28;836;-58
2023/10/08 08:02:11;;;;;;;;;;;;;;;24.92;37.35;99670.91;4995553;28;824;-58
2023/10/08 08:04:41;;;;;;;;;;;;;;;24.83;35.59;99673.91;4995330;28;904;-58
2023/10/08 08:07:07;;;;;;;;;;;;;;;24.60;35.96;99665.31;4995167;28;1894;-58
2023/10/08 08:09:44;;;;;;;;;;;;;;;24.59;35.90;99655.28;4995229;28;859;-58
2023/10/08 08:12:11;;;;;;;;;;;;;;;24.69;35.35;99643.75;4995028;28;1071;-58
2023/10/08 08:14:41;;;;;;;;;;;;;;;24.62;35.38;99640.16;4994968;28;1412;-58
2023/10/08 08:17:13;;;;;;;;;;;;;;;24.94;34.78;99637.22;4995005;28;916;-58
2023/10/08 08:19:52;;;;;;;;;;;;;;;25.23;34.36;99624.78;4995096;28;940;-58
2023/10/08 08:22:21;;;;;;;;;;;;;;;25.58;33.68;99626.44;4995172;28;812;-58
2023/10/08 08:24:52;;;;;;;;;;;;;;;25.45;32.56;99617.66;4994943;28;621;-58
2023/10/08 08:27:38;;;;;;;;;;;;;;;25.32;31.92;99615.31;4994852;28;1910;-58
2023/10/08 08:30:15;;;;;;;;;;;;;;;25.44;31.66;99604.81;4994767;28;914;-58
2023/10/08 08:32:44;;;;;;;;;;;;;;;25.68;31.05;99602.25;4994799;28;1282;-58
2023/10/08 08:35:11;;;;;;;;;;;;;;;26.00;30.93;99599.22;4994729;28;816;-58
2023/10/08 08:37:38;;;;;;;;;;;;;;;26.24;30.77;99595.88;4994667;28;866;-58
2023/10/08 08:40:09;;;;;;;;;;;;;;;26.21;30.20;99599.72;4993376;28;1184;-58
2023/10/08 08:42:35;;;;;;;;;;;;;;;26.18;29.61;99594.31;4994974;28;886;-58
2023/10/08 08:45:08;;;;;;;;;;;;;;;26.07;29.93;99586.59;4994773;28;847;-58
2023/10/08 08:47:35;;;;;;;;;;;;;;;26.28;29.35;99584.28;4994455;28;1894;-57
2023/10/08 08:50:12;;;;;;;;;;;;;;;26.49;29.18;99587.59;4976991;28;1463;-58
2023/10/08 08:52:39;;;;;;;;;;;;;;;26.47;29.59;99567.50;4976824;28;1169;-58
2023/10/08 08:55:14;;;;;;;;;;;;;;;26.56;28.05;99574.94;4994665;28;855;-57
2023/10/08 08:57:43;;;;;;;;;;;;;;;26.41;28.63;99567.50;4994436;28;863;-57
2023/10/08 09:00:14;;;;;;;;;;;;;;;26.42;28.52;99557.72;4994261;28;833;-58
2023/10/08 09:02:41;;;;;;;;;;;;;;;26.66;28.02;99547.91;4994215;28;877;-56
2023/10/08 09:05:23;;;;;;;;;;;;;;;26.68;28.16;99551.75;4993172;28;868;-57
2023/10/08 09:07:56;;;;;;;;;;;;;;;26.75;27.75;99536.25;4994041;28;1910;-57
2023/10/08 09:10:29;;;;;;;;;;;;;;;26.75;27.48;99541.16;4994160;28;889;-57
2023/10/08 09:12:59;;;;;;;;;;;;;;;26.75;27.54;99539.09;4994136;28;1051;-57
2023/10/08 09:15:26;;;;;;;;;;;;;;;26.74;27.58;99519.78;4993647;28;1423;-57
2023/10/08 09:17:54;;;;;;;;;;;;;;;26.80;28.07;99526.19;4994063;28;1061;-58
2023/10/08 09:20:21;;;;;;;;;;;;;;;26.92;27.51;99529.75;4993864;28;992;-57
2023/10/08 09:23:07;;;;;;;;;;;;;;;26.78;27.04;99525.94;4993773;28;828;-57
2023/10/08 09:25:34;;;;;;;;;;;;;;;26.81;27.10;99525.66;4993855;28;848;-58
2023/10/08 09:28:01;;;;;;;;;;;;;;;26.92;26.44;99524.84;4993429;28;1973;-58
2023/10/08 09:30:30;;;;;;;;;;;;;;;27.24;26.84;99519.53;4993688;28;888;-58
2023/10/08 09:32:56;;;;;;;;;;;;;;;27.18;26.62;99513.09;4993683;28;865;-58
2023/10/08 09:35:25;;;;;;;;;;;;;;;27.15;26.31;99511.31;4993555;28;879;-59
2023/10/08 09:37:52;;;;;;;;;;;;;;;27.08;26.56;99517.56;4993785;28;788;-58
2023/10/08 09:40:21;;;;;;;;;;;;;;;27.27;26.86;99509.97;4993509;28;1207;-58
2023/10/08 09:42:47;;;;;;;;;;;;;;;27.31;26.30;99506.06;4993609;28;905;-58
2023/10/08 09:45:14;;;;;;;;;;;;;;;27.27;26.51;99504.31;4993401;28;948;-58
2023/10/08 09:47:43;;;;;;;;;;;;;;;27.26;26.47;99505.59;4976063;28;1927;-59
2023/10/08 09:50:11;;;;;;;;;;;;;;;27.18;26.32;99512.31;4993084;28;898;-58
2023/10/08 09:52:46;;;;;;;;;;;;;;;27.37;26.07;99504.72;4993254;28;848;-59
2023/10/08 09:55:14;;;;;;;;;;;;;;;27.41;25.96;99507.28;4993220;28;851;-58
2023/10/08 09:57:41;;;;;;;;;;;;;;;27.58;26.01;99510.00;4993256;28;868;-58
2023/10/08 10:00:29;;;;;;;;;;;;;;;27.79;25.26;99502.59;4993076;28;885;-59
2023/10/08 10:03:01;;;;;;;;;;;;;;;27.60;25.76;99499.66;4993161;28;876;-58
2023/10/08 10:05:32;;;;;;;;;;;;;;;27.83;25.88;99494.56;4992838;28;861;-58
2023/10/08 10:08:09;;;;;;;;;;;;;;;27.86;25.36;99498.44;4992981;28;1882;-58
2023/10/08 10:10:38;;;;;;;;;;;;;;;27.92;24.96;99487.78;4992900;28;881;-58
2023/10/08 10:13:04;;;;;;;;;;;;;;;28.08;25.85;99486.09;4992999;28;905;-58
2023/10/08 10:15:36;;;;;;;;;;;;;;;28.37;25.08;99480.88;4992696;28;1246;-59
2023/10/08 10:18:16;;;;;;;;;;;;;;;28.51;25.16;99476.84;4992530;28;892;-58
2023/10/08 10:20:46;;;;;;;;;;;;;;;28.29;25.08;99469.31;4992663;28;1150;-58
2023/10/08 10:23:31;;;;;;;;;;;;;;;28.43;24.83;99465.28;4992817;28;864;-58
2023/10/08 10:25:58;;;;;;;;;;;;;;;28.62;24.65;99448.28;4992731;28;899;-58
2023/10/08 10:28:25;;;;;;;;;;;;;;;28.69;24.31;99438.38;4992503;28;1981;-59
2023/10/08 10:30:52;;;;;;;;;;;;;;;28.48;24.50;99440.94;4992787;28;813;-58
2023/10/08 10:33:18;;;;;;;;;;;;;;;28.56;24.91;99424.84;4992674;28;845;-59
2023/10/08 10:35:53;;;;;;;;;;;;;;;28.50;24.57;99426.97;4992719;28;883;-58
2023/10/08 10:38:20;;;;;;;;;;;;;;;28.41;25.05;99425.25;4992556;28;896;-59
2023/10/08 10:40:56;;;;;;;;;;;;;;;28.36;25.06;99419.63;4992509;28;864;-58
2023/10/08 10:43:33;;;;;;;;;;;;;;;28.48;25.26;99412.50;4992546;28;919;-58
2023/10/08 10:46:11;;;;;;;;;;;;;;;28.82;24.54;99424.22;4991191;28;1196;-58
2023/10/08 10:48:38;;;;;;;;;;;;;;;28.96;24.81;99418.59;4992460;28;1970;-59
2023/10/08 10:53:48;;;;;;;;;;;;;;;29.15;24.58;99415.72;4992420;28;912;-58
2023/10/08 10:56:29;;;;;;;;;;;;;;;29.53;24.39;99399.31;4974778;28;894;-59
2023/10/08 10:59:15;;;;;;;;;;;;;;;29.84;23.88;99392.03;4992425;28;864;-58
2023/10/08 11:01:46;;;;;;;;;;;;;;;29.85;23.76;99372.84;4992420;28;843;-58
2023/10/08 11:04:15;;;;;;;;;;;;;;;29.57;23.82;99387.59;4992309;28;856;-59
2023/10/08 11:06:44;;;;;;;;;;;;;;;29.51;24.23;99376.31;4992273;28;1890;-58
2023/10/08 11:09:16;;;;;;;;;;;;;;;29.74;24.23;99373.84;4992098;28;829;-59
2023/10/08 11:11:51;;;;;;;;;;;;;;;30.03;23.85;99376.91;4992381;28;892;-60
2023/10/08 11:14:18;;;;;;;;;;;;;;;30.20;23.60;99376.56;4992181;28;1155;-60
2023/10/08 11:16:47;;;;;;;;;;;;;;;29.98;23.56;99367.16;4992248;28;865;-58
2023/10/08 11:19:15;;;;;;;;;;;;;;;30.04;23.51;99378.44;4992148;28;919;-60
2023/10/08 11:21:55;;;;;;;;;;;;;;;30.07;23.52;99366.72;4992267;28;879;-59
2023/10/08 11:24:29;;;;;;;;;;;;;;;30.14;23.69;99359.59;4992048;28;833;-59
2023/10/08 11:27:06;;;;;;;;;;;;;;;30.20;23.45;99362.31;4992074;28;1918;-59
2023/10/08 11:29:33;;;;;;;;;;;;;;;30.35;23.57;99365.38;4994645;28;832;-59
2023/10/08 11:32:00;;;;;;;;;;;;;;;30.37;23.34;99359.13;4996191;28;880;-59
2023/10/08 11:34:39;;;;;;;;;;;;;;;30.72;23.48;99354.97;4996023;28;883;-59
2023/10/08 11:37:19;;;;;;;;;;;;;;;31.26;22.59;99346.91;4995846;28;836;-59
2023/10/08 11:39:46;;;;;;;;;;;;;;;31.62;22.43;99349.13;4995793;28;840;-60
2023/10/08 11:42:39;;;;;;;;;;;;;;;31.52;22.61;99331.75;4995771;28;813;-61
2023/10/08 11:45:17;;;;;;;;;;;;;;;31.39;22.38;99334.63;4995555;28;1096;-59
2023/10/08 11:47:55;;;;;;;;;;;;;;;31.67;23.05;99331.06;4978236;28;1886;-59
2023/10/08 11:50:30;;;;;;;;;;;;;;;32.02;22.64;99312.41;4994241;28;935;-59
2023/10/08 11:53:01;;;;;;;;;;;;;;;31.90;22.54;99309.09;4994320;28;1255;-60
2023/10/08 11:55:28;;;;;;;;;;;;;;;31.70;22.35;99307.84;4995484;28;852;-60
2023/10/08 11:57:54;;;;;;;;;;;;;;;31.19;23.18;99311.28;4995432;28;808;-61
2023/10/08 12:00:24;;;;;;;;;;;;;;;30.92;23.27;99320.00;4995540;28;825;-59
2023/10/08 12:02:54;;;;;;;;;;;;;;;31.09;23.33;99313.88;4995332;28;843;-60
2023/10/08 12:05:24;;;;;;;;;;;;;;;31.46;23.65;99305.41;4995277;28;871;-59
2023/10/08 12:07:51;;;;;;;;;;;;;;;31.72;23.40;99296.63;4977582;28;1953;-60
2023/10/08 12:10:22;;;;;;;;;;;;;;;31.90;22.68;99291.97;4995216;28;833;-60
2023/10/08 12:12:59;;;;;;;;;;;;;;;31.75;22.46;99286.19;4995049;28;976;-58
2023/10/08 12:15:34;;;;;;;;;;;;;;;31.76;22.62;99298.38;4993616;28;1494;-60
2023/10/08 12:18:19;;;;;;;;;;;;;;;31.70;23.24;99287.84;4995090;28;975;-61
2023/10/08 12:20:47;;;;;;;;;;;;;;;32.04;22.85;99278.31;4994926;28;932;-59
2023/10/08 12:23:24;;;;;;;;;;;;;;;32.09;22.39;99273.75;4995001;28;883;-60
2023/10/08 12:25:55;;;;;;;;;;;;;;;31.60;23.74;99286.88;4995057;28;861;-61
2023/10/08 12:28:27;;;;;;;;;;;;;;;31.58;23.24;99288.72;4994901;28;1969;-61
2023/10/08 12:31:03;;;;;;;;;;;;;;;31.55;23.33;99290.63;4994706;28;932;-61
2023/10/08 12:33:31;;;;;;;;;;;;;;;31.48;23.84;99300.69;4994748;28;836;-60
2023/10/08 12:36:05;;;;;;;;;;;;;;;31.70;23.65;99284.22;4994808;28;841;-60
2023/10/08 12:38:31;;;;;;;;;;;;;;;31.53;23.85;99276.13;4994620;28;860;-60
2023/10/08 12:41:08;;;;;;;;;;;;;;;31.68;23.80;99276.22;4994574;28;817;-61
2023/10/08 12:43:38;;;;;;;;;;;;;;;31.86;23.92;99273.66;4994814;28;907;-60
2023/10/08 12:46:10;;;;;;;;;;;;;;;31.71;23.75;99271.50;4994585;28;904;-61
2023/10/08 12:48:38;;;;;;;;;;;;;;;31.56;24.25;99282.81;4994462;28;1943;-59
2023/10/08 12:51:06;;;;;;;;;;;;;;;31.78;23.75;99275.72;4994808;28;891;-59
2023/10/08 12:53:36;;;;;;;;;;;;;;;32.21;23.51;99263.50;4977102;28;951;-60
2023/10/08 12:56:05;;;;;;;;;;;;;;;32.33;23.35;99264.69;4994485;28;808;-59
2023/10/08 12:58:38;;;;;;;;;;;;;;;31.90;23.59;99271.16;4993056;28;1324;-60
2023/10/08 13:01:07;;;;;;;;;;;;;;;31.85;23.58;99272.88;4994347;28;910;-59
2023/10/08 13:03:33;;;;;;;;;;;;;;;31.60;23.62;99269.72;4994233;28;899;-59
2023/10/08 13:06:14;;;;;;;;;;;;;;;31.62;23.76;99269.13;4994190;28;864;-60
2023/10/08 13:08:41;;;;;;;;;;;;;;;31.46;23.85;99266.22;4994111;28;1958;-59
2023/10/08 13:11:08;;;;;;;;;;;;;;;31.19;24.44;99267.72;4994114;28;862;-60
2023/10/08 13:13:36;;;;;;;;;;;;;;;31.21;24.22;99273.63;4994103;28;1226;-59
2023/10/08 13:16:07;;;;;;;;;;;;;;;31.28;24.27;99264.34;4994033;28;934;-60
2023/10/08 13:18:37;;;;;;;;;;;;;;;31.20;24.69;99260.69;4993999;28;837;-60
2023/10/08 13:21:05;;;;;;;;;;;;;;;31.13;24.73;99247.88;4976321;28;1234;-60
2023/10/08 13:23:33;;;;;;;;;;;;;;;31.01;24.33;99243.81;4993827;28;939;-59
2023/10/08 13:26:04;;;;;;;;;;;;;;;30.23;25.60;99244.38;4992497;28;900;-60
2023/10/08 13:28:33;;;;;;;;;;;;;;;29.92;25.67;99252.56;4993869;28;1906;-60
2023/10/08 13:31:09;;;;;;;;;;;;;;;30.32;25.85;99246.75;4993750;28;932;-60
2023/10/08 13:33:38;;;;;;;;;;;;;;;31.12;25.06;99238.56;4993654;28;844;-60
2023/10/08 13:36:08;;;;;;;;;;;;;;;31.33;24.22;99243.47;4993886;28;918;-61
2023/10/08 13:38:36;;;;;;;;;;;;;;;31.19;24.45;99247.72;4993676;28;879;-60
2023/10/08 13:41:20;;;;;;;;;;;;;;;30.99;24.88;99249.31;4993568;28;891;-60
2023/10/08 13:43:51;;;;;;;;;;;;;;;31.09;24.37;99248.25;4993382;28;888;-61
2023/10/08 13:46:25;;;;;;;;;;;;;;;30.93;24.76;99255.91;4993452;28;845;-58
2023/10/08 13:48:52;;;;;;;;;;;;;;;30.70;24.93;99243.50;4993344;28;1879;-60
2023/10/08 13:51:23;;;;;;;;;;;;;;;30.85;24.88;99251.44;4992851;28;1010;-60
2023/10/08 13:53:52;;;;;;;;;;;;;;;30.40;25.14;99244.00;4993286;28;911;-62
2023/10/08 13:56:20;;;;;;;;;;;;;;;30.04;25.87;99247.38;4993231;28;864;-61
2023/10/08 13:58:49;;;;;;;;;;;;;;;29.74;26.03;99251.38;4993428;28;879;-62
2023/10/08 14:01:19;;;;;;;;;;;;;;;29.41;26.61;99249.97;4993136;28;884;-62
2023/10/08 14:03:47;;;;;;;;;;;;;;;29.21;26.75;99252.16;4993086;28;895;-61
2023/10/08 14:06:16;;;;;;;;;;;;;;;29.09;26.72;99259.34;4992916;28;903;-58
2023/10/08 14:08:48;;;;;;;;;;;;;;;28.63;27.08;99261.41;4993047;28;1878;-59
2023/10/08 14:11:15;;;;;;;;;;;;;;;28.41;27.94;99254.75;4993078;28;934;-59
2023/10/08 14:13:42;;;;;;;;;;;;;;;28.29;27.84;99248.47;4993202;28;1396;-59
2023/10/08 14:16:11;;;;;;;;;;;;;;;28.30;27.84;99249.25;4991725;28;1288;-59
2023/10/08 14:18:40;;;;;;;;;;;;;;;28.17;28.35;99247.09;4992789;28;881;-59
2023/10/08 14:21:10;;;;;;;;;;;;;;;28.10;28.18;99253.38;4992882;28;888;-59
2023/10/08 14:23:39;;;;;;;;;;;;;;;28.11;28.14;99263.47;4992638;28;1123;-59
2023/10/08 14:26:06;;;;;;;;;;;;;;;28.14;28.44;99264.44;4992798;28;860;-59
2023/10/08 14:29:17;;;;;;;;;;;;;;;28.06;28.86;99267.16;4992634;28;1910;-59
2023/10/08 14:31:24;;;;;;;;;;;;;;;27.97;28.78;99267.50;4986793;28;1165;-59
2023/10/08 14:34:05;;;;;;;;;;;;;;;27.88;29.08;99268.66;4992435;28;876;-59
2023/10/08 14:42:55;;;;;;;;;;;;;;;27.31;29.76;99274.19;4992708;28;790;-59
2023/10/08 14:45:01;;;;;;;;;;;;;;;26.91;30.24;99285.16;4992637;28;651;-59
2023/10/08 14:47:28;;;;;;;;;;;;;;;26.77;30.37;99284.22;4992400;28;1989;-59
2023/10/08 14:49:56;;;;;;;;;;;;;;;26.67;30.51;99288.66;4992452;28;1039;-60
2023/10/08 14:52:23;;;;;;;;;;;;;;;26.55;30.72;99287.97;4992778;28;903;-60
2023/10/08 14:54:51;;;;;;;;;;;;;;;26.45;30.85;99290.34;4992424;28;831;-59
2023/10/08 14:57:18;;;;;;;;;;;;;;;26.38;31.29;99287.31;4992360;28;895;-60
2023/10/08 14:59:45;;;;;;;;;;;;;;;26.36;31.32;99299.16;4992407;28;876;-60
2023/10/08 15:02:12;;;;;;;;;;;;;;;26.27;31.43;99302.31;4992357;28;883;-59
2023/10/08 15:04:41;;;;;;;;;;;;;;;26.22;31.88;99300.28;4994892;28;841;-60